sensor_id;sensor_type;location;lat;lon;timestamp;P1;durP1;ratioP1;P2;durP2;ratioP2
11054;SDS011;5580;50.106;8.702;2024-01-30T00:01:12;36.47;;;22.43;;
11054;SDS011;5580;50.106;8.702;2024-01-30T00:03:38;30.80;;;21.27;;
11054;SDS011;5580;50.106;8.702;2024-01-30T00:06:04;31.87;;;21.27;;
11054;SDS011;5580;50.106;8.702;2024-01-30T00:08:29;35.73;;;22.00;;
11054;SDS011;5580;50.106;8.702;2024-01-30T00:10:55;34.33;;;21.30;;
11054;SDS011;5580;50.106;8.702;2024-01-30T00:13:20;34.33;;;21.93;;
11054;SDS011;5580;50.106;8.702;2024-01-30T00:15:46;36.37;;;22.10;;
11054;SDS011;5580;50.106;8.702;2024-01-30T00:18:12;30.97;;;21.33;;
11054;SDS011;5580;50.106;8.702;2024-01-30T00:20:37;29.63;;;20.60;;
11054;SDS011;5580;50.106;8.702;2024-01-30T00:23:03;31.63;;;21.87;;
11054;SDS011;5580;50.106;8.702;2024-01-30T00:25:28;32.43;;;21.23;;
11054;SDS011;5580;50.106;8.702;2024-01-30T00:27:54;30.37;;;21.27;;
11054;SDS011;5580;50.106;8.702;2024-01-30T00:30:20;31.10;;;20.87;;
11054;SDS011;5580;50.106;8.702;2024-01-30T00:32:46;31.43;;;20.77;;
11054;SDS011;5580;50.106;8.702;2024-01-30T00:35:11;29.53;;;19.50;;
11054;SDS011;5580;50.106;8.702;2024-01-30T00:37:37;33.57;;;20.60;;
11054;SDS011;5580;50.106;8.702;2024-01-30T00:40:03;30.47;;;19.00;;
11054;SDS011;5580;50.106;8.702;2024-01-30T00:42:29;29.87;;;18.77;;
11054;SDS011;5580;50.106;8.702;2024-01-30T00:44:54;30.30;;;19.17;;
11054;SDS011;5580;50.106;8.702;2024-01-30T00:47:20;30.63;;;19.93;;
11054;SDS011;5580;50.106;8.702;2024-01-30T00:49:45;30.10;;;20.40;;
11054;SDS011;5580;50.106;8.702;2024-01-30T00:52:11;30.57;;;19.77;;
11054;SDS011;5580;50.106;8.702;2024-01-30T00:54:37;29.13;;;19.77;;
11054;SDS011;5580;50.106;8.702;2024-01-30T00:57:02;31.47;;;19.87;;
11054;SDS011;5580;50.106;8.702;2024-01-30T00:59:28;29.50;;;19.93;;
11054;SDS011;5580;50.106;8.702;2024-01-30T01:01:54;28.37;;;18.23;;
11054;SDS011;5580;50.106;8.702;2024-01-30T01:04:19;31.47;;;19.37;;
11054;SDS011;5580;50.106;8.702;2024-01-30T01:06:46;30.40;;;18.10;;
11054;SDS011;5580;50.106;8.702;2024-01-30T01:09:12;29.17;;;18.47;;
11054;SDS011;5580;50.106;8.702;2024-01-30T01:11:37;28.43;;;18.87;;
11054;SDS011;5580;50.106;8.702;2024-01-30T01:14:03;26.27;;;17.60;;
11054;SDS011;5580;50.106;8.702;2024-01-30T01:16:29;28.63;;;17.67;;
11054;SDS011;5580;50.106;8.702;2024-01-30T01:18:55;29.27;;;18.40;;
11054;SDS011;5580;50.106;8.702;2024-01-30T01:21:21;28.40;;;18.70;;
11054;SDS011;5580;50.106;8.702;2024-01-30T01:23:46;30.63;;;18.67;;
11054;SDS011;5580;50.106;8.702;2024-01-30T01:26:12;27.83;;;17.40;;
11054;SDS011;5580;50.106;8.702;2024-01-30T01:28:39;26.87;;;18.07;;
11054;SDS011;5580;50.106;8.702;2024-01-30T01:31:06;28.30;;;17.57;;
11054;SDS011;5580;50.106;8.702;2024-01-30T01:33:32;29.07;;;17.63;;
11054;SDS011;5580;50.106;8.702;2024-01-30T01:35:58;26.83;;;17.20;;
11054;SDS011;5580;50.106;8.702;2024-01-30T01:38:24;26.30;;;16.60;;
11054;SDS011;5580;50.106;8.702;2024-01-30T01:40:50;28.13;;;17.00;;
11054;SDS011;5580;50.106;8.702;2024-01-30T01:43:16;26.40;;;16.37;;
11054;SDS011;5580;50.106;8.702;2024-01-30T01:45:41;23.80;;;15.97;;
11054;SDS011;5580;50.106;8.702;2024-01-30T01:48:07;26.00;;;17.10;;
11054;SDS011;5580;50.106;8.702;2024-01-30T01:50:34;23.83;;;15.53;;
11054;SDS011;5580;50.106;8.702;2024-01-30T01:53:01;26.90;;;16.63;;
11054;SDS011;5580;50.106;8.702;2024-01-30T01:55:27;24.17;;;16.37;;
11054;SDS011;5580;50.106;8.702;2024-01-30T01:57:55;25.60;;;16.33;;
11054;SDS011;5580;50.106;8.702;2024-01-30T02:00:21;24.80;;;16.63;;
11054;SDS011;5580;50.106;8.702;2024-01-30T02:02:47;26.43;;;16.67;;
11054;SDS011;5580;50.106;8.702;2024-01-30T02:05:13;25.37;;;16.17;;
11054;SDS011;5580;50.106;8.702;2024-01-30T02:07:39;22.87;;;15.23;;
11054;SDS011;5580;50.106;8.702;2024-01-30T02:10:05;25.73;;;15.80;;
11054;SDS011;5580;50.106;8.702;2024-01-30T02:12:32;24.30;;;14.93;;
11054;SDS011;5580;50.106;8.702;2024-01-30T02:14:58;24.80;;;15.37;;
11054;SDS011;5580;50.106;8.702;2024-01-30T02:17:23;23.93;;;15.23;;
11054;SDS011;5580;50.106;8.702;2024-01-30T02:19:49;25.37;;;15.40;;
11054;SDS011;5580;50.106;8.702;2024-01-30T02:22:14;22.40;;;14.40;;
11054;SDS011;5580;50.106;8.702;2024-01-30T02:24:40;28.30;;;15.23;;
11054;SDS011;5580;50.106;8.702;2024-01-30T02:27:06;23.87;;;14.57;;
11054;SDS011;5580;50.106;8.702;2024-01-30T02:29:31;23.87;;;15.20;;
11054;SDS011;5580;50.106;8.702;2024-01-30T02:31:57;23.63;;;15.70;;
11054;SDS011;5580;50.106;8.702;2024-01-30T02:34:23;22.93;;;15.57;;
11054;SDS011;5580;50.106;8.702;2024-01-30T02:36:49;23.27;;;15.53;;
11054;SDS011;5580;50.106;8.702;2024-01-30T02:39:14;25.07;;;15.97;;
11054;SDS011;5580;50.106;8.702;2024-01-30T02:41:40;24.17;;;15.50;;
11054;SDS011;5580;50.106;8.702;2024-01-30T02:44:05;24.37;;;15.07;;
11054;SDS011;5580;50.106;8.702;2024-01-30T02:46:31;20.77;;;14.20;;
11054;SDS011;5580;50.106;8.702;2024-01-30T02:48:56;24.90;;;14.77;;
11054;SDS011;5580;50.106;8.702;2024-01-30T02:51:22;21.40;;;14.50;;
11054;SDS011;5580;50.106;8.702;2024-01-30T02:53:48;22.67;;;13.97;;
11054;SDS011;5580;50.106;8.702;2024-01-30T02:56:13;23.70;;;15.43;;
11054;SDS011;5580;50.106;8.702;2024-01-30T02:58:39;21.80;;;14.40;;
11054;SDS011;5580;50.106;8.702;2024-01-30T03:01:06;21.23;;;13.87;;
11054;SDS011;5580;50.106;8.702;2024-01-30T03:03:32;24.97;;;15.00;;
11054;SDS011;5580;50.106;8.702;2024-01-30T03:06:00;25.50;;;14.77;;
11054;SDS011;5580;50.106;8.702;2024-01-30T03:08:25;22.33;;;14.20;;
11054;SDS011;5580;50.106;8.702;2024-01-30T03:10:51;21.03;;;14.30;;
11054;SDS011;5580;50.106;8.702;2024-01-30T03:13:16;23.43;;;15.23;;
11054;SDS011;5580;50.106;8.702;2024-01-30T03:15:42;22.53;;;14.37;;
11054;SDS011;5580;50.106;8.702;2024-01-30T03:18:07;22.33;;;14.67;;
11054;SDS011;5580;50.106;8.702;2024-01-30T03:20:33;23.70;;;15.40;;
11054;SDS011;5580;50.106;8.702;2024-01-30T03:22:59;21.93;;;14.33;;
11054;SDS011;5580;50.106;8.702;2024-01-30T03:25:25;21.53;;;14.80;;
11054;SDS011;5580;50.106;8.702;2024-01-30T03:27:51;23.90;;;15.57;;
11054;SDS011;5580;50.106;8.702;2024-01-30T03:30:17;24.27;;;14.77;;
11054;SDS011;5580;50.106;8.702;2024-01-30T03:32:42;21.60;;;14.57;;
11054;SDS011;5580;50.106;8.702;2024-01-30T03:35:09;22.10;;;14.43;;
11054;SDS011;5580;50.106;8.702;2024-01-30T03:37:34;22.60;;;14.40;;
11054;SDS011;5580;50.106;8.702;2024-01-30T03:40:00;21.97;;;14.50;;
11054;SDS011;5580;50.106;8.702;2024-01-30T03:42:28;24.53;;;15.03;;
11054;SDS011;5580;50.106;8.702;2024-01-30T03:44:53;22.93;;;14.43;;
11054;SDS011;5580;50.106;8.702;2024-01-30T03:47:20;22.17;;;14.50;;
11054;SDS011;5580;50.106;8.702;2024-01-30T03:49:45;21.53;;;13.53;;
11054;SDS011;5580;50.106;8.702;2024-01-30T03:52:11;21.47;;;14.60;;
11054;SDS011;5580;50.106;8.702;2024-01-30T03:54:37;26.10;;;15.60;;
11054;SDS011;5580;50.106;8.702;2024-01-30T03:57:02;22.87;;;15.07;;
11054;SDS011;5580;50.106;8.702;2024-01-30T03:59:28;21.70;;;14.17;;
11054;SDS011;5580;50.106;8.702;2024-01-30T04:01:54;23.60;;;14.93;;
11054;SDS011;5580;50.106;8.702;2024-01-30T04:04:19;23.77;;;15.80;;
11054;SDS011;5580;50.106;8.702;2024-01-30T04:06:45;24.50;;;16.33;;
11054;SDS011;5580;50.106;8.702;2024-01-30T04:09:12;23.23;;;15.93;;
11054;SDS011;5580;50.106;8.702;2024-01-30T04:11:38;23.87;;;16.23;;
11054;SDS011;5580;50.106;8.702;2024-01-30T04:14:04;25.77;;;16.50;;
11054;SDS011;5580;50.106;8.702;2024-01-30T04:16:30;23.73;;;16.23;;
11054;SDS011;5580;50.106;8.702;2024-01-30T04:18:55;23.30;;;15.47;;
11054;SDS011;5580;50.106;8.702;2024-01-30T04:21:21;23.97;;;15.60;;
11054;SDS011;5580;50.106;8.702;2024-01-30T04:23:47;23.10;;;15.60;;
11054;SDS011;5580;50.106;8.702;2024-01-30T04:26:14;26.20;;;16.20;;
11054;SDS011;5580;50.106;8.702;2024-01-30T04:28:44;23.53;;;15.07;;
11054;SDS011;5580;50.106;8.702;2024-01-30T04:31:10;26.07;;;15.97;;
11054;SDS011;5580;50.106;8.702;2024-01-30T04:33:36;24.90;;;16.10;;
11054;SDS011;5580;50.106;8.702;2024-01-30T04:36:01;26.53;;;16.40;;
11054;SDS011;5580;50.106;8.702;2024-01-30T04:38:28;23.93;;;16.17;;
11054;SDS011;5580;50.106;8.702;2024-01-30T04:40:53;26.53;;;16.43;;
11054;SDS011;5580;50.106;8.702;2024-01-30T04:43:19;25.27;;;16.73;;
11054;SDS011;5580;50.106;8.702;2024-01-30T04:45:45;24.20;;;15.77;;
11054;SDS011;5580;50.106;8.702;2024-01-30T04:48:10;25.30;;;16.50;;
11054;SDS011;5580;50.106;8.702;2024-01-30T04:50:36;23.90;;;16.03;;
11054;SDS011;5580;50.106;8.702;2024-01-30T04:53:01;24.80;;;16.03;;
11054;SDS011;5580;50.106;8.702;2024-01-30T04:55:27;27.03;;;17.17;;
11054;SDS011;5580;50.106;8.702;2024-01-30T04:57:53;27.00;;;17.30;;
11054;SDS011;5580;50.106;8.702;2024-01-30T05:00:18;22.67;;;15.53;;
11054;SDS011;5580;50.106;8.702;2024-01-30T05:02:44;25.80;;;16.67;;
11054;SDS011;5580;50.106;8.702;2024-01-30T05:05:10;29.63;;;18.03;;
11054;SDS011;5580;50.106;8.702;2024-01-30T05:07:36;26.57;;;16.60;;
11054;SDS011;5580;50.106;8.702;2024-01-30T05:10:02;25.53;;;16.40;;
11054;SDS011;5580;50.106;8.702;2024-01-30T05:12:28;23.03;;;15.73;;
11054;SDS011;5580;50.106;8.702;2024-01-30T05:14:54;24.10;;;15.80;;
11054;SDS011;5580;50.106;8.702;2024-01-30T05:17:19;41.97;;;17.53;;
11054;SDS011;5580;50.106;8.702;2024-01-30T05:19:45;37.33;;;16.93;;
11054;SDS011;5580;50.106;8.702;2024-01-30T05:22:11;34.23;;;18.07;;
11054;SDS011;5580;50.106;8.702;2024-01-30T05:24:40;27.53;;;15.87;;
11054;SDS011;5580;50.106;8.702;2024-01-30T05:27:07;27.70;;;16.20;;
11054;SDS011;5580;50.106;8.702;2024-01-30T05:29:33;26.60;;;16.53;;
11054;SDS011;5580;50.106;8.702;2024-01-30T05:31:58;28.47;;;16.27;;
11054;SDS011;5580;50.106;8.702;2024-01-30T05:34:24;26.73;;;17.17;;
11054;SDS011;5580;50.106;8.702;2024-01-30T05:36:49;26.73;;;16.20;;
11054;SDS011;5580;50.106;8.702;2024-01-30T05:39:15;25.67;;;16.07;;
11054;SDS011;5580;50.106;8.702;2024-01-30T05:41:40;27.93;;;16.70;;
11054;SDS011;5580;50.106;8.702;2024-01-30T05:44:06;25.07;;;16.07;;
11054;SDS011;5580;50.106;8.702;2024-01-30T05:46:32;25.23;;;16.43;;
11054;SDS011;5580;50.106;8.702;2024-01-30T05:48:58;27.13;;;16.97;;
11054;SDS011;5580;50.106;8.702;2024-01-30T05:51:24;30.53;;;18.20;;
11054;SDS011;5580;50.106;8.702;2024-01-30T05:53:49;28.47;;;17.57;;
11054;SDS011;5580;50.106;8.702;2024-01-30T05:56:15;30.43;;;17.70;;
11054;SDS011;5580;50.106;8.702;2024-01-30T05:58:40;30.53;;;18.17;;
11054;SDS011;5580;50.106;8.702;2024-01-30T06:01:08;26.87;;;17.93;;
11054;SDS011;5580;50.106;8.702;2024-01-30T06:03:33;27.03;;;17.87;;
11054;SDS011;5580;50.106;8.702;2024-01-30T06:05:59;27.80;;;17.27;;
11054;SDS011;5580;50.106;8.702;2024-01-30T06:08:25;25.47;;;17.53;;
11054;SDS011;5580;50.106;8.702;2024-01-30T06:10:50;26.83;;;17.17;;
11054;SDS011;5580;50.106;8.702;2024-01-30T06:13:16;30.53;;;17.87;;
11054;SDS011;5580;50.106;8.702;2024-01-30T06:15:42;27.80;;;17.37;;
11054;SDS011;5580;50.106;8.702;2024-01-30T06:18:07;29.00;;;18.43;;
11054;SDS011;5580;50.106;8.702;2024-01-30T06:20:33;28.10;;;17.77;;
11054;SDS011;5580;50.106;8.702;2024-01-30T06:22:59;27.57;;;17.50;;
11054;SDS011;5580;50.106;8.702;2024-01-30T06:25:25;23.80;;;16.40;;
11054;SDS011;5580;50.106;8.702;2024-01-30T06:27:50;26.03;;;15.80;;
11054;SDS011;5580;50.106;8.702;2024-01-30T06:30:16;27.23;;;17.13;;
11054;SDS011;5580;50.106;8.702;2024-01-30T06:32:42;20.87;;;14.60;;
11054;SDS011;5580;50.106;8.702;2024-01-30T06:35:07;26.90;;;16.27;;
11054;SDS011;5580;50.106;8.702;2024-01-30T06:37:33;24.13;;;15.53;;
11054;SDS011;5580;50.106;8.702;2024-01-30T06:39:59;24.57;;;15.87;;
11054;SDS011;5580;50.106;8.702;2024-01-30T06:42:25;22.27;;;15.60;;
11054;SDS011;5580;50.106;8.702;2024-01-30T06:44:50;22.83;;;15.50;;
11054;SDS011;5580;50.106;8.702;2024-01-30T06:47:16;24.80;;;15.83;;
11054;SDS011;5580;50.106;8.702;2024-01-30T06:49:41;25.97;;;15.97;;
11054;SDS011;5580;50.106;8.702;2024-01-30T06:52:08;25.87;;;16.20;;
11054;SDS011;5580;50.106;8.702;2024-01-30T06:54:34;26.37;;;16.27;;
11054;SDS011;5580;50.106;8.702;2024-01-30T06:57:00;24.93;;;16.10;;
11054;SDS011;5580;50.106;8.702;2024-01-30T06:59:25;24.63;;;15.30;;
11054;SDS011;5580;50.106;8.702;2024-01-30T07:01:51;24.87;;;15.00;;
11054;SDS011;5580;50.106;8.702;2024-01-30T07:04:17;22.53;;;14.77;;
11054;SDS011;5580;50.106;8.702;2024-01-30T07:06:43;22.37;;;14.60;;
11054;SDS011;5580;50.106;8.702;2024-01-30T07:09:09;23.80;;;15.73;;
11054;SDS011;5580;50.106;8.702;2024-01-30T07:11:34;26.40;;;15.03;;
11054;SDS011;5580;50.106;8.702;2024-01-30T07:14:00;25.57;;;15.23;;
11054;SDS011;5580;50.106;8.702;2024-01-30T07:16:28;25.13;;;14.87;;
11054;SDS011;5580;50.106;8.702;2024-01-30T07:18:54;23.27;;;15.33;;
11054;SDS011;5580;50.106;8.702;2024-01-30T07:21:21;24.53;;;15.23;;
11054;SDS011;5580;50.106;8.702;2024-01-30T07:23:50;25.27;;;15.47;;
11054;SDS011;5580;50.106;8.702;2024-01-30T07:26:15;26.17;;;15.23;;
11054;SDS011;5580;50.106;8.702;2024-01-30T07:28:41;23.40;;;15.30;;
11054;SDS011;5580;50.106;8.702;2024-01-30T07:31:06;24.93;;;15.70;;
11054;SDS011;5580;50.106;8.702;2024-01-30T07:33:32;23.13;;;15.57;;
11054;SDS011;5580;50.106;8.702;2024-01-30T07:35:58;22.67;;;14.73;;
11054;SDS011;5580;50.106;8.702;2024-01-30T07:38:23;23.47;;;15.20;;
11054;SDS011;5580;50.106;8.702;2024-01-30T07:40:49;24.70;;;15.70;;
11054;SDS011;5580;50.106;8.702;2024-01-30T07:43:14;23.90;;;16.20;;
11054;SDS011;5580;50.106;8.702;2024-01-30T07:45:40;26.53;;;16.17;;
11054;SDS011;5580;50.106;8.702;2024-01-30T07:48:06;25.33;;;15.93;;
11054;SDS011;5580;50.106;8.702;2024-01-30T07:50:31;24.13;;;16.00;;
11054;SDS011;5580;50.106;8.702;2024-01-30T07:52:59;26.63;;;17.37;;
11054;SDS011;5580;50.106;8.702;2024-01-30T07:55:25;27.33;;;16.93;;
11054;SDS011;5580;50.106;8.702;2024-01-30T07:57:53;25.33;;;16.93;;
11054;SDS011;5580;50.106;8.702;2024-01-30T08:00:20;24.93;;;16.63;;
11054;SDS011;5580;50.106;8.702;2024-01-30T08:02:46;27.33;;;17.67;;
11054;SDS011;5580;50.106;8.702;2024-01-30T08:05:12;29.73;;;18.40;;
11054;SDS011;5580;50.106;8.702;2024-01-30T08:07:39;30.03;;;18.40;;
11054;SDS011;5580;50.106;8.702;2024-01-30T08:10:05;30.43;;;18.40;;
11054;SDS011;5580;50.106;8.702;2024-01-30T08:12:31;28.13;;;18.07;;
11054;SDS011;5580;50.106;8.702;2024-01-30T08:14:56;27.33;;;17.93;;
11054;SDS011;5580;50.106;8.702;2024-01-30T08:17:22;28.93;;;18.67;;
11054;SDS011;5580;50.106;8.702;2024-01-30T08:19:48;28.17;;;18.53;;
11054;SDS011;5580;50.106;8.702;2024-01-30T08:22:13;26.63;;;18.30;;
11054;SDS011;5580;50.106;8.702;2024-01-30T08:24:39;29.30;;;17.83;;
11054;SDS011;5580;50.106;8.702;2024-01-30T08:27:06;26.20;;;18.53;;
11054;SDS011;5580;50.106;8.702;2024-01-30T08:29:34;26.93;;;17.70;;
11054;SDS011;5580;50.106;8.702;2024-01-30T08:32:03;32.67;;;19.60;;
11054;SDS011;5580;50.106;8.702;2024-01-30T08:34:30;29.60;;;18.97;;
11054;SDS011;5580;50.106;8.702;2024-01-30T08:36:56;29.90;;;19.23;;
11054;SDS011;5580;50.106;8.702;2024-01-30T08:39:21;30.70;;;19.23;;
11054;SDS011;5580;50.106;8.702;2024-01-30T08:41:47;30.93;;;19.03;;
11054;SDS011;5580;50.106;8.702;2024-01-30T08:44:12;34.17;;;19.73;;
11054;SDS011;5580;50.106;8.702;2024-01-30T08:46:38;31.70;;;18.93;;
11054;SDS011;5580;50.106;8.702;2024-01-30T08:49:04;28.07;;;17.53;;
11054;SDS011;5580;50.106;8.702;2024-01-30T08:51:30;27.07;;;18.93;;
11054;SDS011;5580;50.106;8.702;2024-01-30T08:53:55;30.20;;;19.23;;
11054;SDS011;5580;50.106;8.702;2024-01-30T08:56:21;28.47;;;18.87;;
11054;SDS011;5580;50.106;8.702;2024-01-30T08:58:47;27.80;;;18.77;;
11054;SDS011;5580;50.106;8.702;2024-01-30T09:01:13;27.70;;;18.60;;
11054;SDS011;5580;50.106;8.702;2024-01-30T09:03:39;28.87;;;18.90;;
11054;SDS011;5580;50.106;8.702;2024-01-30T09:06:09;28.77;;;18.47;;
11054;SDS011;5580;50.106;8.702;2024-01-30T09:08:35;26.87;;;18.50;;
11054;SDS011;5580;50.106;8.702;2024-01-30T09:11:00;29.43;;;19.87;;
11054;SDS011;5580;50.106;8.702;2024-01-30T09:13:26;32.20;;;18.90;;
11054;SDS011;5580;50.106;8.702;2024-01-30T09:15:52;30.10;;;18.87;;
11054;SDS011;5580;50.106;8.702;2024-01-30T09:18:18;30.80;;;20.73;;
11054;SDS011;5580;50.106;8.702;2024-01-30T09:20:43;32.00;;;21.43;;
11054;SDS011;5580;50.106;8.702;2024-01-30T09:23:12;28.73;;;19.83;;
11054;SDS011;5580;50.106;8.702;2024-01-30T09:25:38;27.93;;;19.87;;
11054;SDS011;5580;50.106;8.702;2024-01-30T09:28:04;30.00;;;20.97;;
11054;SDS011;5580;50.106;8.702;2024-01-30T09:30:30;30.40;;;21.20;;
11054;SDS011;5580;50.106;8.702;2024-01-30T09:32:56;29.67;;;20.80;;
11054;SDS011;5580;50.106;8.702;2024-01-30T09:35:21;28.87;;;20.23;;
11054;SDS011;5580;50.106;8.702;2024-01-30T09:37:47;31.17;;;20.20;;
11054;SDS011;5580;50.106;8.702;2024-01-30T09:40:13;27.73;;;19.97;;
11054;SDS011;5580;50.106;8.702;2024-01-30T09:42:39;27.80;;;19.50;;
11054;SDS011;5580;50.106;8.702;2024-01-30T09:45:07;26.53;;;19.37;;
11054;SDS011;5580;50.106;8.702;2024-01-30T09:47:39;27.83;;;19.77;;
11054;SDS011;5580;50.106;8.702;2024-01-30T09:50:09;29.93;;;20.13;;
11054;SDS011;5580;50.106;8.702;2024-01-30T09:52:38;28.60;;;19.87;;
11054;SDS011;5580;50.106;8.702;2024-01-30T09:55:04;26.47;;;19.27;;
11054;SDS011;5580;50.106;8.702;2024-01-30T09:57:31;29.17;;;19.43;;
11054;SDS011;5580;50.106;8.702;2024-01-30T09:59:57;33.33;;;19.23;;
11054;SDS011;5580;50.106;8.702;2024-01-30T10:02:23;29.60;;;19.83;;
11054;SDS011;5580;50.106;8.702;2024-01-30T10:04:48;26.00;;;18.43;;
11054;SDS011;5580;50.106;8.702;2024-01-30T10:07:15;24.80;;;18.10;;
11054;SDS011;5580;50.106;8.702;2024-01-30T10:09:41;25.83;;;19.10;;
11054;SDS011;5580;50.106;8.702;2024-01-30T10:12:07;27.63;;;18.60;;
11054;SDS011;5580;50.106;8.702;2024-01-30T10:14:40;27.73;;;19.30;;
11054;SDS011;5580;50.106;8.702;2024-01-30T10:17:07;27.23;;;18.97;;
11054;SDS011;5580;50.106;8.702;2024-01-30T10:19:34;27.53;;;19.33;;
11054;SDS011;5580;50.106;8.702;2024-01-30T10:22:00;25.57;;;18.97;;
11054;SDS011;5580;50.106;8.702;2024-01-30T10:24:26;25.43;;;18.90;;
11054;SDS011;5580;50.106;8.702;2024-01-30T10:26:52;26.87;;;18.53;;
11054;SDS011;5580;50.106;8.702;2024-01-30T10:29:18;27.50;;;18.47;;
11054;SDS011;5580;50.106;8.702;2024-01-30T10:31:44;25.87;;;18.57;;
11054;SDS011;5580;50.106;8.702;2024-01-30T10:34:10;26.67;;;18.83;;
11054;SDS011;5580;50.106;8.702;2024-01-30T10:36:41;27.57;;;18.67;;
11054;SDS011;5580;50.106;8.702;2024-01-30T10:39:11;27.10;;;19.27;;
11054;SDS011;5580;50.106;8.702;2024-01-30T10:41:42;26.80;;;18.87;;
11054;SDS011;5580;50.106;8.702;2024-01-30T10:44:09;28.57;;;19.43;;
11054;SDS011;5580;50.106;8.702;2024-01-30T10:46:37;25.37;;;18.73;;
11054;SDS011;5580;50.106;8.702;2024-01-30T10:49:04;28.20;;;18.33;;
11054;SDS011;5580;50.106;8.702;2024-01-30T10:51:30;25.47;;;18.33;;
11054;SDS011;5580;50.106;8.702;2024-01-30T10:53:57;28.13;;;18.63;;
11054;SDS011;5580;50.106;8.702;2024-01-30T10:56:23;29.27;;;18.83;;
11054;SDS011;5580;50.106;8.702;2024-01-30T10:58:50;27.87;;;19.07;;
11054;SDS011;5580;50.106;8.702;2024-01-30T11:01:21;27.27;;;18.50;;
11054;SDS011;5580;50.106;8.702;2024-01-30T11:03:51;26.50;;;18.40;;
11054;SDS011;5580;50.106;8.702;2024-01-30T11:06:17;28.57;;;18.37;;
11054;SDS011;5580;50.106;8.702;2024-01-30T11:08:43;30.23;;;18.53;;
11054;SDS011;5580;50.106;8.702;2024-01-30T11:11:25;26.07;;;19.33;;
11054;SDS011;5580;50.106;8.702;2024-01-30T11:13:50;27.60;;;18.50;;
11054;SDS011;5580;50.106;8.702;2024-01-30T11:16:16;27.07;;;18.67;;
11054;SDS011;5580;50.106;8.702;2024-01-30T11:18:42;30.03;;;19.20;;
11054;SDS011;5580;50.106;8.702;2024-01-30T11:21:07;24.70;;;18.00;;
11054;SDS011;5580;50.106;8.702;2024-01-30T11:23:33;25.70;;;18.33;;
11054;SDS011;5580;50.106;8.702;2024-01-30T11:26:00;26.77;;;18.63;;
11054;SDS011;5580;50.106;8.702;2024-01-30T11:28:25;26.87;;;17.90;;
11054;SDS011;5580;50.106;8.702;2024-01-30T11:31:07;29.33;;;18.20;;
11054;SDS011;5580;50.106;8.702;2024-01-30T11:33:33;25.30;;;18.47;;
11054;SDS011;5580;50.106;8.702;2024-01-30T11:35:59;30.17;;;18.63;;
11054;SDS011;5580;50.106;8.702;2024-01-30T11:38:26;26.23;;;17.67;;
11054;SDS011;5580;50.106;8.702;2024-01-30T11:40:52;27.33;;;18.07;;
11054;SDS011;5580;50.106;8.702;2024-01-30T11:43:19;28.27;;;19.20;;
11054;SDS011;5580;50.106;8.702;2024-01-30T11:45:45;25.20;;;17.60;;
11054;SDS011;5580;50.106;8.702;2024-01-30T11:48:11;27.17;;;18.70;;
11054;SDS011;5580;50.106;8.702;2024-01-30T11:50:38;26.27;;;18.70;;
11054;SDS011;5580;50.106;8.702;2024-01-30T11:53:05;26.30;;;17.70;;
11054;SDS011;5580;50.106;8.702;2024-01-30T11:55:31;25.03;;;17.70;;
11054;SDS011;5580;50.106;8.702;2024-01-30T11:57:58;25.30;;;17.27;;
11054;SDS011;5580;50.106;8.702;2024-01-30T12:00:23;27.10;;;17.20;;
11054;SDS011;5580;50.106;8.702;2024-01-30T12:02:53;26.17;;;17.33;;
11054;SDS011;5580;50.106;8.702;2024-01-30T12:05:25;27.30;;;18.07;;
11054;SDS011;5580;50.106;8.702;2024-01-30T12:07:51;25.27;;;17.53;;
11054;SDS011;5580;50.106;8.702;2024-01-30T12:10:17;25.67;;;16.83;;
11054;SDS011;5580;50.106;8.702;2024-01-30T12:12:44;24.77;;;16.47;;
11054;SDS011;5580;50.106;8.702;2024-01-30T12:15:11;23.53;;;16.27;;
11054;SDS011;5580;50.106;8.702;2024-01-30T12:17:38;24.17;;;16.23;;
11054;SDS011;5580;50.106;8.702;2024-01-30T12:22:42;26.13;;;16.43;;
11054;SDS011;5580;50.106;8.702;2024-01-30T12:25:09;26.73;;;17.17;;
11054;SDS011;5580;50.106;8.702;2024-01-30T12:27:36;27.20;;;17.77;;
11054;SDS011;5580;50.106;8.702;2024-01-30T12:30:09;24.07;;;16.93;;
11054;SDS011;5580;50.106;8.702;2024-01-30T12:32:36;25.73;;;17.10;;
11054;SDS011;5580;50.106;8.702;2024-01-30T12:35:14;24.80;;;17.87;;
11054;SDS011;5580;50.106;8.702;2024-01-30T12:37:42;27.87;;;17.20;;
11054;SDS011;5580;50.106;8.702;2024-01-30T12:40:09;25.23;;;16.60;;
11054;SDS011;5580;50.106;8.702;2024-01-30T12:42:36;23.33;;;16.33;;
11054;SDS011;5580;50.106;8.702;2024-01-30T12:45:02;23.20;;;16.43;;
11054;SDS011;5580;50.106;8.702;2024-01-30T12:47:29;26.20;;;17.77;;
11054;SDS011;5580;50.106;8.702;2024-01-30T12:49:55;26.17;;;17.40;;
11054;SDS011;5580;50.106;8.702;2024-01-30T12:52:21;24.70;;;17.50;;
11054;SDS011;5580;50.106;8.702;2024-01-30T12:54:47;24.50;;;17.47;;
11054;SDS011;5580;50.106;8.702;2024-01-30T12:57:13;26.17;;;17.03;;
11054;SDS011;5580;50.106;8.702;2024-01-30T12:59:39;26.00;;;17.30;;
11054;SDS011;5580;50.106;8.702;2024-01-30T13:02:05;28.43;;;17.87;;
11054;SDS011;5580;50.106;8.702;2024-01-30T13:04:31;25.57;;;17.33;;
11054;SDS011;5580;50.106;8.702;2024-01-30T13:06:57;23.10;;;16.90;;
11054;SDS011;5580;50.106;8.702;2024-01-30T13:09:23;25.80;;;16.43;;
11054;SDS011;5580;50.106;8.702;2024-01-30T13:11:49;24.43;;;16.57;;
11054;SDS011;5580;50.106;8.702;2024-01-30T13:14:16;26.53;;;17.07;;
11054;SDS011;5580;50.106;8.702;2024-01-30T13:16:42;26.87;;;18.10;;
11054;SDS011;5580;50.106;8.702;2024-01-30T13:19:08;27.10;;;17.53;;
11054;SDS011;5580;50.106;8.702;2024-01-30T13:21:34;25.50;;;17.17;;
11054;SDS011;5580;50.106;8.702;2024-01-30T13:23:59;25.33;;;16.60;;
11054;SDS011;5580;50.106;8.702;2024-01-30T13:26:25;24.93;;;17.70;;
11054;SDS011;5580;50.106;8.702;2024-01-30T13:28:51;25.23;;;17.03;;
11054;SDS011;5580;50.106;8.702;2024-01-30T13:31:16;24.80;;;17.10;;
11054;SDS011;5580;50.106;8.702;2024-01-30T13:33:42;24.83;;;17.00;;
11054;SDS011;5580;50.106;8.702;2024-01-30T13:36:10;24.47;;;17.50;;
11054;SDS011;5580;50.106;8.702;2024-01-30T13:38:36;23.33;;;16.30;;
11054;SDS011;5580;50.106;8.702;2024-01-30T13:41:02;24.83;;;16.83;;
11054;SDS011;5580;50.106;8.702;2024-01-30T13:43:28;24.27;;;17.23;;
11054;SDS011;5580;50.106;8.702;2024-01-30T13:45:54;25.47;;;16.63;;
11054;SDS011;5580;50.106;8.702;2024-01-30T13:48:20;25.13;;;17.70;;
11054;SDS011;5580;50.106;8.702;2024-01-30T13:50:46;24.80;;;17.33;;
11054;SDS011;5580;50.106;8.702;2024-01-30T13:53:13;25.17;;;17.13;;
11054;SDS011;5580;50.106;8.702;2024-01-30T13:55:39;24.53;;;16.53;;
11054;SDS011;5580;50.106;8.702;2024-01-30T13:58:04;25.27;;;16.77;;
11054;SDS011;5580;50.106;8.702;2024-01-30T14:00:31;26.77;;;17.30;;
11054;SDS011;5580;50.106;8.702;2024-01-30T14:02:57;26.37;;;17.67;;
11054;SDS011;5580;50.106;8.702;2024-01-30T14:05:24;25.93;;;18.30;;
11054;SDS011;5580;50.106;8.702;2024-01-30T14:07:50;24.63;;;17.87;;
11054;SDS011;5580;50.106;8.702;2024-01-30T14:10:17;24.83;;;17.27;;
11054;SDS011;5580;50.106;8.702;2024-01-30T14:12:43;24.03;;;17.43;;
11054;SDS011;5580;50.106;8.702;2024-01-30T14:15:09;26.37;;;17.63;;
11054;SDS011;5580;50.106;8.702;2024-01-30T14:17:35;27.10;;;18.37;;
11054;SDS011;5580;50.106;8.702;2024-01-30T14:20:05;26.67;;;17.57;;
11054;SDS011;5580;50.106;8.702;2024-01-30T14:22:32;26.27;;;18.10;;
11054;SDS011;5580;50.106;8.702;2024-01-30T14:24:58;24.23;;;17.33;;
11054;SDS011;5580;50.106;8.702;2024-01-30T14:27:24;26.87;;;18.30;;
11054;SDS011;5580;50.106;8.702;2024-01-30T14:29:50;28.03;;;18.37;;